Terminal Aerodrome Forecast
Issued by NWS Bismarck, ND

Home | Current Version | Previous Version | Graphics & Text | Print | Product List | Glossary On
Versions: 1 2 3 4 5 6 7 8 9 10 11 12 13 14 15 16 17 18 19 20 21 22
000
FTUS43 KBIS 300533
TAFBIS
TAF
KBIS 300533Z 3006/0106 32017G26KT 1SM -SN BR SCT008 OVC011
      TEMPO 3006/3008 3/4SM -SN BKN008
     FM301000 33015G22KT 2SM -SN BR BKN008 OVC010
     FM301300 33014G22KT 3SM -SN BR OVC010
     FM301800 33014G19KT P6SM -SHSN OVC015
     FM302200 33011KT P6SM -SHSN OVC015
     FM010100 33009KT P6SM OVC008=

USA.gov is the U.S. government's official web portal to all federal, state and local government web resources and services.